sensor_id;sensor_type;location;lat;lon;timestamp;P1;durP1;ratioP1;P2;durP2;ratioP2
13244;SDS011;6689;53.400;12.486;2024-02-14T00:00:07;6.35;;;4.03;;
13244;SDS011;6689;53.400;12.486;2024-02-14T00:02:38;5.43;;;4.20;;
13244;SDS011;6689;53.400;12.486;2024-02-14T00:05:06;7.03;;;5.25;;
13244;SDS011;6689;53.400;12.486;2024-02-14T00:07:37;7.53;;;4.35;;
13244;SDS011;6689;53.400;12.486;2024-02-14T00:10:05;7.07;;;4.15;;
13244;SDS011;6689;53.400;12.486;2024-02-14T00:12:33;6.30;;;3.92;;
13244;SDS011;6689;53.400;12.486;2024-02-14T00:15:02;7.22;;;5.13;;
13244;SDS011;6689;53.400;12.486;2024-02-14T00:17:31;6.60;;;4.10;;
13244;SDS011;6689;53.400;12.486;2024-02-14T00:19:58;8.05;;;4.13;;
13244;SDS011;6689;53.400;12.486;2024-02-14T00:22:26;5.97;;;4.07;;
13244;SDS011;6689;53.400;12.486;2024-02-14T00:24:54;11.77;;;4.60;;
13244;SDS011;6689;53.400;12.486;2024-02-14T00:27:22;9.18;;;4.10;;
13244;SDS011;6689;53.400;12.486;2024-02-14T00:29:49;7.28;;;4.47;;
13244;SDS011;6689;53.400;12.486;2024-02-14T00:32:19;8.20;;;4.53;;
13244;SDS011;6689;53.400;12.486;2024-02-14T00:34:48;7.47;;;4.57;;
13244;SDS011;6689;53.400;12.486;2024-02-14T00:37:16;7.05;;;4.80;;
13244;SDS011;6689;53.400;12.486;2024-02-14T00:39:45;15.18;;;5.72;;
13244;SDS011;6689;53.400;12.486;2024-02-14T00:42:15;10.18;;;5.75;;
13244;SDS011;6689;53.400;12.486;2024-02-14T00:44:42;5.40;;;4.75;;
13244;SDS011;6689;53.400;12.486;2024-02-14T00:47:09;7.28;;;5.78;;
13244;SDS011;6689;53.400;12.486;2024-02-14T00:49:37;10.25;;;6.82;;
13244;SDS011;6689;53.400;12.486;2024-02-14T00:52:05;8.75;;;6.05;;
13244;SDS011;6689;53.400;12.486;2024-02-14T00:54:34;8.55;;;6.60;;
13244;SDS011;6689;53.400;12.486;2024-02-14T00:57:01;10.43;;;5.82;;
13244;SDS011;6689;53.400;12.486;2024-02-14T00:59:31;9.10;;;5.57;;
13244;SDS011;6689;53.400;12.486;2024-02-14T01:02:00;8.00;;;5.43;;
13244;SDS011;6689;53.400;12.486;2024-02-14T01:04:27;10.13;;;6.38;;
13244;SDS011;6689;53.400;12.486;2024-02-14T01:06:55;9.20;;;5.63;;
13244;SDS011;6689;53.400;12.486;2024-02-14T01:09:22;8.27;;;5.97;;
13244;SDS011;6689;53.400;12.486;2024-02-14T01:11:49;8.73;;;6.32;;
13244;SDS011;6689;53.400;12.486;2024-02-14T01:14:16;10.95;;;5.82;;
13244;SDS011;6689;53.400;12.486;2024-02-14T01:16:50;9.25;;;6.60;;
13244;SDS011;6689;53.400;12.486;2024-02-14T01:19:19;7.68;;;5.85;;
13244;SDS011;6689;53.400;12.486;2024-02-14T01:21:46;9.27;;;6.93;;
13244;SDS011;6689;53.400;12.486;2024-02-14T01:24:13;9.02;;;6.28;;
13244;SDS011;6689;53.400;12.486;2024-02-14T01:26:41;8.80;;;6.22;;
13244;SDS011;6689;53.400;12.486;2024-02-14T01:29:08;10.77;;;6.20;;
13244;SDS011;6689;53.400;12.486;2024-02-14T01:31:42;8.82;;;6.63;;
13244;SDS011;6689;53.400;12.486;2024-02-14T01:34:10;8.73;;;6.32;;
13244;SDS011;6689;53.400;12.486;2024-02-14T01:36:38;8.70;;;6.47;;
13244;SDS011;6689;53.400;12.486;2024-02-14T01:39:06;8.80;;;6.32;;
13244;SDS011;6689;53.400;12.486;2024-02-14T01:41:36;9.73;;;6.82;;
13244;SDS011;6689;53.400;12.486;2024-02-14T01:44:04;12.23;;;8.13;;
13244;SDS011;6689;53.400;12.486;2024-02-14T01:46:32;9.63;;;5.93;;
13244;SDS011;6689;53.400;12.486;2024-02-14T01:49:00;8.20;;;6.60;;
13244;SDS011;6689;53.400;12.486;2024-02-14T01:51:29;9.32;;;7.10;;
13244;SDS011;6689;53.400;12.486;2024-02-14T01:53:58;11.23;;;7.50;;
13244;SDS011;6689;53.400;12.486;2024-02-14T01:56:26;11.20;;;7.78;;
13244;SDS011;6689;53.400;12.486;2024-02-14T01:58:53;8.07;;;6.50;;
13244;SDS011;6689;53.400;12.486;2024-02-14T02:01:21;11.60;;;6.60;;
13244;SDS011;6689;53.400;12.486;2024-02-14T02:03:50;11.48;;;7.80;;
13244;SDS011;6689;53.400;12.486;2024-02-14T02:06:17;11.75;;;7.68;;
13244;SDS011;6689;53.400;12.486;2024-02-14T02:25:36;8.65;;;6.53;;
13244;SDS011;6689;53.400;12.486;2024-02-14T02:28:04;10.43;;;6.47;;
13244;SDS011;6689;53.400;12.486;2024-02-14T02:30:34;10.63;;;6.80;;
13244;SDS011;6689;53.400;12.486;2024-02-14T02:33:02;9.20;;;6.72;;
13244;SDS011;6689;53.400;12.486;2024-02-14T02:35:30;11.75;;;6.50;;
13244;SDS011;6689;53.400;12.486;2024-02-14T02:37:57;11.00;;;6.28;;
13244;SDS011;6689;53.400;12.486;2024-02-14T02:40:27;10.70;;;6.20;;
13244;SDS011;6689;53.400;12.486;2024-02-14T02:42:56;12.27;;;6.28;;
13244;SDS011;6689;53.400;12.486;2024-02-14T02:45:25;9.52;;;6.88;;
13244;SDS011;6689;53.400;12.486;2024-02-14T02:47:53;10.45;;;7.32;;
13244;SDS011;6689;53.400;12.486;2024-02-14T02:50:21;15.18;;;7.72;;
13244;SDS011;6689;53.400;12.486;2024-02-14T02:52:51;8.80;;;5.68;;
13244;SDS011;6689;53.400;12.486;2024-02-14T02:55:18;7.65;;;6.05;;
13244;SDS011;6689;53.400;12.486;2024-02-14T02:57:45;13.38;;;7.80;;
13244;SDS011;6689;53.400;12.486;2024-02-14T03:00:15;7.43;;;5.72;;
13244;SDS011;6689;53.400;12.486;2024-02-14T03:02:46;9.45;;;5.53;;
13244;SDS011;6689;53.400;12.486;2024-02-14T03:05:14;8.65;;;6.07;;
13244;SDS011;6689;53.400;12.486;2024-02-14T03:07:44;8.68;;;5.25;;
13244;SDS011;6689;53.400;12.486;2024-02-14T03:10:14;7.88;;;5.45;;
13244;SDS011;6689;53.400;12.486;2024-02-14T03:12:44;6.80;;;4.93;;
13244;SDS011;6689;53.400;12.486;2024-02-14T03:15:17;6.43;;;4.43;;
13244;SDS011;6689;53.400;12.486;2024-02-14T03:17:45;6.78;;;5.00;;
13244;SDS011;6689;53.400;12.486;2024-02-14T03:20:12;8.15;;;4.53;;
13244;SDS011;6689;53.400;12.486;2024-02-14T03:22:40;9.98;;;6.63;;
13244;SDS011;6689;53.400;12.486;2024-02-14T03:25:11;6.95;;;4.40;;
13244;SDS011;6689;53.400;12.486;2024-02-14T03:27:41;7.50;;;5.05;;
13244;SDS011;6689;53.400;12.486;2024-02-14T03:30:11;8.75;;;5.13;;
13244;SDS011;6689;53.400;12.486;2024-02-14T03:32:43;6.72;;;4.50;;
13244;SDS011;6689;53.400;12.486;2024-02-14T03:35:11;9.68;;;4.18;;
13244;SDS011;6689;53.400;12.486;2024-02-14T03:37:40;8.48;;;4.45;;
13244;SDS011;6689;53.400;12.486;2024-02-14T03:40:09;10.73;;;4.30;;
13244;SDS011;6689;53.400;12.486;2024-02-14T03:42:37;13.40;;;4.97;;
13244;SDS011;6689;53.400;12.486;2024-02-14T03:45:05;10.90;;;6.03;;
13244;SDS011;6689;53.400;12.486;2024-02-14T03:47:33;5.47;;;4.20;;
13244;SDS011;6689;53.400;12.486;2024-02-14T03:50:07;9.82;;;4.22;;
13244;SDS011;6689;53.400;12.486;2024-02-14T03:52:34;8.88;;;4.00;;
13244;SDS011;6689;53.400;12.486;2024-02-14T03:55:05;8.40;;;4.80;;
13244;SDS011;6689;53.400;12.486;2024-02-14T03:57:34;6.53;;;4.43;;
13244;SDS011;6689;53.400;12.486;2024-02-14T04:00:04;11.02;;;4.72;;
13244;SDS011;6689;53.400;12.486;2024-02-14T04:02:36;6.18;;;4.75;;
13244;SDS011;6689;53.400;12.486;2024-02-14T04:05:04;8.02;;;4.75;;
13244;SDS011;6689;53.400;12.486;2024-02-14T04:07:34;7.00;;;4.63;;
13244;SDS011;6689;53.400;12.486;2024-02-14T04:10:02;7.00;;;4.78;;
13244;SDS011;6689;53.400;12.486;2024-02-14T04:12:30;6.03;;;4.18;;
13244;SDS011;6689;53.400;12.486;2024-02-14T04:14:57;8.15;;;4.95;;
13244;SDS011;6689;53.400;12.486;2024-02-14T04:17:25;8.95;;;5.45;;
13244;SDS011;6689;53.400;12.486;2024-02-14T04:19:52;7.90;;;5.20;;
13244;SDS011;6689;53.400;12.486;2024-02-14T04:22:20;7.45;;;5.05;;
13244;SDS011;6689;53.400;12.486;2024-02-14T04:24:48;10.43;;;5.13;;
13244;SDS011;6689;53.400;12.486;2024-02-14T04:27:17;10.50;;;5.47;;
13244;SDS011;6689;53.400;12.486;2024-02-14T04:29:45;7.82;;;5.30;;
13244;SDS011;6689;53.400;12.486;2024-02-14T04:32:13;9.88;;;5.20;;
13244;SDS011;6689;53.400;12.486;2024-02-14T04:34:40;12.30;;;4.90;;
13244;SDS011;6689;53.400;12.486;2024-02-14T04:37:08;9.02;;;5.45;;
13244;SDS011;6689;53.400;12.486;2024-02-14T04:39:40;10.18;;;4.80;;
13244;SDS011;6689;53.400;12.486;2024-02-14T04:42:07;8.73;;;4.78;;
13244;SDS011;6689;53.400;12.486;2024-02-14T04:44:34;8.13;;;4.38;;
13244;SDS011;6689;53.400;12.486;2024-02-14T04:47:02;7.13;;;4.75;;
13244;SDS011;6689;53.400;12.486;2024-02-14T04:49:30;11.70;;;5.78;;
13244;SDS011;6689;53.400;12.486;2024-02-14T04:51:58;8.10;;;5.03;;
13244;SDS011;6689;53.400;12.486;2024-02-14T04:54:26;6.53;;;4.43;;
13244;SDS011;6689;53.400;12.486;2024-02-14T04:56:56;5.82;;;4.20;;
13244;SDS011;6689;53.400;12.486;2024-02-14T04:59:24;8.73;;;4.55;;
13244;SDS011;6689;53.400;12.486;2024-02-14T05:01:51;11.48;;;5.05;;
13244;SDS011;6689;53.400;12.486;2024-02-14T05:04:19;7.53;;;4.63;;
13244;SDS011;6689;53.400;12.486;2024-02-14T05:06:46;8.98;;;5.28;;
13244;SDS011;6689;53.400;12.486;2024-02-14T05:09:16;6.78;;;4.47;;
13244;SDS011;6689;53.400;12.486;2024-02-14T05:11:44;5.57;;;4.43;;
13244;SDS011;6689;53.400;12.486;2024-02-14T05:14:12;8.10;;;4.57;;
13244;SDS011;6689;53.400;12.486;2024-02-14T05:16:40;7.68;;;4.90;;
13244;SDS011;6689;53.400;12.486;2024-02-14T05:19:07;8.30;;;4.47;;
13244;SDS011;6689;53.400;12.486;2024-02-14T05:21:35;7.90;;;4.38;;
13244;SDS011;6689;53.400;12.486;2024-02-14T05:24:03;9.60;;;5.30;;
13244;SDS011;6689;53.400;12.486;2024-02-14T05:26:31;8.05;;;5.53;;
13244;SDS011;6689;53.400;12.486;2024-02-14T05:28:58;8.05;;;4.88;;
13244;SDS011;6689;53.400;12.486;2024-02-14T05:31:29;8.75;;;4.75;;
13244;SDS011;6689;53.400;12.486;2024-02-14T05:34:09;8.60;;;4.50;;
13244;SDS011;6689;53.400;12.486;2024-02-14T05:36:36;6.95;;;4.53;;
13244;SDS011;6689;53.400;12.486;2024-02-14T05:39:03;10.38;;;5.25;;
13244;SDS011;6689;53.400;12.486;2024-02-14T05:41:31;7.90;;;4.85;;
13244;SDS011;6689;53.400;12.486;2024-02-14T05:44:01;12.57;;;4.93;;
13244;SDS011;6689;53.400;12.486;2024-02-14T05:46:30;6.90;;;4.97;;
13244;SDS011;6689;53.400;12.486;2024-02-14T05:48:57;7.03;;;5.35;;
13244;SDS011;6689;53.400;12.486;2024-02-14T05:51:24;11.20;;;5.30;;
13244;SDS011;6689;53.400;12.486;2024-02-14T05:53:51;15.40;;;5.15;;
13244;SDS011;6689;53.400;12.486;2024-02-14T05:56:19;11.63;;;5.95;;
13244;SDS011;6689;53.400;12.486;2024-02-14T05:58:47;10.13;;;5.80;;
13244;SDS011;6689;53.400;12.486;2024-02-14T06:01:14;7.38;;;5.13;;
13244;SDS011;6689;53.400;12.486;2024-02-14T06:03:42;7.63;;;5.05;;
13244;SDS011;6689;53.400;12.486;2024-02-14T06:06:09;9.27;;;5.50;;
13244;SDS011;6689;53.400;12.486;2024-02-14T06:08:37;8.00;;;5.43;;
13244;SDS011;6689;53.400;12.486;2024-02-14T06:11:04;9.38;;;5.63;;
13244;SDS011;6689;53.400;12.486;2024-02-14T06:13:33;9.23;;;5.85;;
13244;SDS011;6689;53.400;12.486;2024-02-14T06:16:01;8.43;;;5.35;;
13244;SDS011;6689;53.400;12.486;2024-02-14T06:18:29;6.35;;;4.97;;
13244;SDS011;6689;53.400;12.486;2024-02-14T06:20:58;9.43;;;5.40;;
13244;SDS011;6689;53.400;12.486;2024-02-14T06:23:25;9.43;;;5.85;;
13244;SDS011;6689;53.400;12.486;2024-02-14T06:25:52;9.50;;;5.68;;
13244;SDS011;6689;53.400;12.486;2024-02-14T06:28:19;8.98;;;5.80;;
13244;SDS011;6689;53.400;12.486;2024-02-14T06:30:47;10.27;;;5.70;;
13244;SDS011;6689;53.400;12.486;2024-02-14T06:33:14;7.82;;;5.38;;
13244;SDS011;6689;53.400;12.486;2024-02-14T06:35:41;9.32;;;5.97;;
13244;SDS011;6689;53.400;12.486;2024-02-14T06:38:10;7.88;;;6.03;;
13244;SDS011;6689;53.400;12.486;2024-02-14T06:40:37;9.10;;;6.50;;
13244;SDS011;6689;53.400;12.486;2024-02-14T06:43:05;11.10;;;6.13;;
13244;SDS011;6689;53.400;12.486;2024-02-14T06:45:33;11.63;;;6.03;;
13244;SDS011;6689;53.400;12.486;2024-02-14T06:48:01;12.00;;;6.60;;
13244;SDS011;6689;53.400;12.486;2024-02-14T06:50:28;13.40;;;6.78;;
13244;SDS011;6689;53.400;12.486;2024-02-14T06:52:57;8.40;;;5.70;;
13244;SDS011;6689;53.400;12.486;2024-02-14T06:55:26;8.98;;;6.70;;
13244;SDS011;6689;53.400;12.486;2024-02-14T06:57:57;11.23;;;6.80;;
13244;SDS011;6689;53.400;12.486;2024-02-14T07:00:25;10.80;;;6.68;;
13244;SDS011;6689;53.400;12.486;2024-02-14T07:02:53;11.27;;;6.20;;
13244;SDS011;6689;53.400;12.486;2024-02-14T07:05:20;12.20;;;7.22;;
13244;SDS011;6689;53.400;12.486;2024-02-14T07:07:48;9.38;;;6.20;;
13244;SDS011;6689;53.400;12.486;2024-02-14T07:10:15;10.82;;;6.82;;
13244;SDS011;6689;53.400;12.486;2024-02-14T07:12:44;9.07;;;6.55;;
13244;SDS011;6689;53.400;12.486;2024-02-14T07:15:12;11.52;;;6.90;;
13244;SDS011;6689;53.400;12.486;2024-02-14T07:17:40;10.43;;;6.25;;
13244;SDS011;6689;53.400;12.486;2024-02-14T07:20:09;12.77;;;8.48;;
13244;SDS011;6689;53.400;12.486;2024-02-14T07:22:37;12.13;;;6.90;;
13244;SDS011;6689;53.400;12.486;2024-02-14T07:25:04;10.10;;;6.53;;
13244;SDS011;6689;53.400;12.486;2024-02-14T07:27:33;12.13;;;7.00;;
13244;SDS011;6689;53.400;12.486;2024-02-14T07:30:01;15.02;;;8.48;;
13244;SDS011;6689;53.400;12.486;2024-02-14T07:32:30;10.90;;;6.47;;
13244;SDS011;6689;53.400;12.486;2024-02-14T07:34:57;8.35;;;6.70;;
13244;SDS011;6689;53.400;12.486;2024-02-14T07:37:25;13.00;;;6.85;;
13244;SDS011;6689;53.400;12.486;2024-02-14T07:39:53;12.48;;;6.80;;
13244;SDS011;6689;53.400;12.486;2024-02-14T07:42:20;9.85;;;6.85;;
13244;SDS011;6689;53.400;12.486;2024-02-14T07:44:47;9.93;;;7.07;;
13244;SDS011;6689;53.400;12.486;2024-02-14T07:47:16;9.35;;;6.60;;
13244;SDS011;6689;53.400;12.486;2024-02-14T07:49:44;15.32;;;6.80;;
13244;SDS011;6689;53.400;12.486;2024-02-14T07:52:11;12.02;;;6.65;;
13244;SDS011;6689;53.400;12.486;2024-02-14T07:54:39;10.57;;;6.15;;
13244;SDS011;6689;53.400;12.486;2024-02-14T07:57:06;12.32;;;6.95;;
13244;SDS011;6689;53.400;12.486;2024-02-14T07:59:33;12.98;;;7.75;;
13244;SDS011;6689;53.400;12.486;2024-02-14T08:02:00;10.15;;;6.50;;
13244;SDS011;6689;53.400;12.486;2024-02-14T08:04:29;9.48;;;6.75;;
13244;SDS011;6689;53.400;12.486;2024-02-14T08:07:00;10.50;;;7.03;;
13244;SDS011;6689;53.400;12.486;2024-02-14T08:09:27;8.43;;;6.13;;
13244;SDS011;6689;53.400;12.486;2024-02-14T08:11:56;10.57;;;6.68;;
13244;SDS011;6689;53.400;12.486;2024-02-14T08:14:23;9.02;;;6.70;;
13244;SDS011;6689;53.400;12.486;2024-02-14T08:16:50;9.85;;;7.18;;
13244;SDS011;6689;53.400;12.486;2024-02-14T08:19:17;11.57;;;7.03;;
13244;SDS011;6689;53.400;12.486;2024-02-14T08:21:46;12.05;;;6.82;;
13244;SDS011;6689;53.400;12.486;2024-02-14T08:24:14;12.43;;;6.70;;
13244;SDS011;6689;53.400;12.486;2024-02-14T08:26:42;13.40;;;6.47;;
13244;SDS011;6689;53.400;12.486;2024-02-14T08:29:09;10.52;;;6.20;;
13244;SDS011;6689;53.400;12.486;2024-02-14T08:31:39;10.38;;;7.18;;
13244;SDS011;6689;53.400;12.486;2024-02-14T08:34:06;16.63;;;6.82;;
13244;SDS011;6689;53.400;12.486;2024-02-14T08:36:34;11.40;;;7.25;;
13244;SDS011;6689;53.400;12.486;2024-02-14T08:39:07;12.90;;;7.25;;
13244;SDS011;6689;53.400;12.486;2024-02-14T08:41:35;7.50;;;6.15;;
13244;SDS011;6689;53.400;12.486;2024-02-14T08:44:03;8.65;;;5.88;;
13244;SDS011;6689;53.400;12.486;2024-02-14T08:46:30;12.13;;;6.60;;
13244;SDS011;6689;53.400;12.486;2024-02-14T08:48:59;12.27;;;6.32;;
13244;SDS011;6689;53.400;12.486;2024-02-14T08:51:27;9.38;;;6.68;;
13244;SDS011;6689;53.400;12.486;2024-02-14T08:53:54;10.15;;;6.20;;
13244;SDS011;6689;53.400;12.486;2024-02-14T08:56:26;10.32;;;7.07;;
13244;SDS011;6689;53.400;12.486;2024-02-14T08:58:53;13.50;;;7.20;;
13244;SDS011;6689;53.400;12.486;2024-02-14T09:01:20;10.23;;;6.07;;
13244;SDS011;6689;53.400;12.486;2024-02-14T09:03:48;9.18;;;6.78;;
13244;SDS011;6689;53.400;12.486;2024-02-14T09:06:15;12.20;;;6.53;;
13244;SDS011;6689;53.400;12.486;2024-02-14T09:08:44;10.30;;;6.43;;
13244;SDS011;6689;53.400;12.486;2024-02-14T09:11:11;10.15;;;6.53;;
13244;SDS011;6689;53.400;12.486;2024-02-14T09:13:41;13.82;;;7.93;;
13244;SDS011;6689;53.400;12.486;2024-02-14T09:16:08;9.68;;;6.05;;
13244;SDS011;6689;53.400;12.486;2024-02-14T09:18:36;12.82;;;6.43;;
13244;SDS011;6689;53.400;12.486;2024-02-14T09:21:03;10.43;;;6.03;;
13244;SDS011;6689;53.400;12.486;2024-02-14T09:23:31;11.75;;;7.20;;
13244;SDS011;6689;53.400;12.486;2024-02-14T09:25:58;10.52;;;6.82;;
13244;SDS011;6689;53.400;12.486;2024-02-14T09:28:26;15.43;;;6.55;;
13244;SDS011;6689;53.400;12.486;2024-02-14T09:30:55;10.80;;;6.15;;
13244;SDS011;6689;53.400;12.486;2024-02-14T09:33:22;10.32;;;6.35;;
13244;SDS011;6689;53.400;12.486;2024-02-14T09:35:49;13.57;;;6.85;;
13244;SDS011;6689;53.400;12.486;2024-02-14T09:38:17;10.23;;;6.40;;
13244;SDS011;6689;53.400;12.486;2024-02-14T09:40:44;9.70;;;6.28;;
13244;SDS011;6689;53.400;12.486;2024-02-14T09:43:13;10.63;;;6.70;;
13244;SDS011;6689;53.400;12.486;2024-02-14T09:45:49;9.85;;;6.28;;
13244;SDS011;6689;53.400;12.486;2024-02-14T09:48:19;11.32;;;6.25;;
13244;SDS011;6689;53.400;12.486;2024-02-14T09:50:48;12.35;;;6.82;;
13244;SDS011;6689;53.400;12.486;2024-02-14T09:53:16;14.20;;;7.78;;
13244;SDS011;6689;53.400;12.486;2024-02-14T09:55:45;11.85;;;6.68;;
13244;SDS011;6689;53.400;12.486;2024-02-14T09:58:13;10.10;;;7.07;;
13244;SDS011;6689;53.400;12.486;2024-02-14T10:00:41;11.07;;;7.07;;
13244;SDS011;6689;53.400;12.486;2024-02-14T10:03:08;11.20;;;6.45;;
13244;SDS011;6689;53.400;12.486;2024-02-14T10:05:37;9.77;;;6.55;;
13244;SDS011;6689;53.400;12.486;2024-02-14T10:08:04;9.30;;;6.03;;
13244;SDS011;6689;53.400;12.486;2024-02-14T10:10:32;11.30;;;6.82;;
13244;SDS011;6689;53.400;12.486;2024-02-14T10:13:03;13.77;;;6.53;;
13244;SDS011;6689;53.400;12.486;2024-02-14T10:15:31;16.67;;;6.65;;
13244;SDS011;6689;53.400;12.486;2024-02-14T10:17:58;13.38;;;6.70;;
13244;SDS011;6689;53.400;12.486;2024-02-14T10:20:26;9.13;;;6.20;;
13244;SDS011;6689;53.400;12.486;2024-02-14T10:23:01;11.50;;;7.05;;
13244;SDS011;6689;53.400;12.486;2024-02-14T10:25:29;8.27;;;5.82;;
13244;SDS011;6689;53.400;12.486;2024-02-14T10:28:03;9.43;;;6.10;;
13244;SDS011;6689;53.400;12.486;2024-02-14T10:30:34;8.27;;;5.47;;
13244;SDS011;6689;53.400;12.486;2024-02-14T10:33:03;11.80;;;6.70;;
13244;SDS011;6689;53.400;12.486;2024-02-14T10:35:32;8.02;;;5.95;;
13244;SDS011;6689;53.400;12.486;2024-02-14T10:38:03;8.60;;;5.45;;
13244;SDS011;6689;53.400;12.486;2024-02-14T10:40:32;8.90;;;6.88;;
13244;SDS011;6689;53.400;12.486;2024-02-14T10:43:01;10.15;;;6.55;;
13244;SDS011;6689;53.400;12.486;2024-02-14T10:45:28;8.45;;;6.20;;
13244;SDS011;6689;53.400;12.486;2024-02-14T10:47:56;9.27;;;6.75;;
13244;SDS011;6689;53.400;12.486;2024-02-14T10:50:27;11.95;;;7.68;;
13244;SDS011;6689;53.400;12.486;2024-02-14T10:52:59;9.45;;;6.60;;
13244;SDS011;6689;53.400;12.486;2024-02-14T10:55:31;11.38;;;7.13;;
13244;SDS011;6689;53.400;12.486;2024-02-14T10:57:59;12.85;;;7.40;;
13244;SDS011;6689;53.400;12.486;2024-02-14T11:00:28;10.23;;;6.90;;
13244;SDS011;6689;53.400;12.486;2024-02-14T11:02:57;12.05;;;7.13;;
13244;SDS011;6689;53.400;12.486;2024-02-14T11:05:25;13.70;;;7.80;;
13244;SDS011;6689;53.400;12.486;2024-02-14T11:07:53;12.35;;;7.50;;
13244;SDS011;6689;53.400;12.486;2024-02-14T11:10:24;13.48;;;7.88;;
13244;SDS011;6689;53.400;12.486;2024-02-14T11:12:56;12.27;;;7.47;;
13244;SDS011;6689;53.400;12.486;2024-02-14T11:15:26;10.32;;;7.82;;
13244;SDS011;6689;53.400;12.486;2024-02-14T11:18:03;11.05;;;7.97;;
13244;SDS011;6689;53.400;12.486;2024-02-14T11:20:34;10.23;;;7.15;;
13244;SDS011;6689;53.400;12.486;2024-02-14T11:23:03;15.48;;;8.32;;
13244;SDS011;6689;53.400;12.486;2024-02-14T11:25:31;12.77;;;8.10;;
13244;SDS011;6689;53.400;12.486;2024-02-14T11:28:12;10.98;;;8.32;;
13244;SDS011;6689;53.400;12.486;2024-02-14T11:30:40;11.57;;;8.18;;
13244;SDS011;6689;53.400;12.486;2024-02-14T11:33:12;13.73;;;8.10;;
13244;SDS011;6689;53.400;12.486;2024-02-14T11:35:40;12.45;;;8.13;;
13244;SDS011;6689;53.400;12.486;2024-02-14T11:38:08;13.52;;;8.18;;
13244;SDS011;6689;53.400;12.486;2024-02-14T11:40:36;13.60;;;8.85;;
13244;SDS011;6689;53.400;12.486;2024-02-14T11:43:05;11.70;;;8.32;;
13244;SDS011;6689;53.400;12.486;2024-02-14T11:45:38;12.48;;;8.90;;
13244;SDS011;6689;53.400;12.486;2024-02-14T11:48:07;14.43;;;9.40;;
13244;SDS011;6689;53.400;12.486;2024-02-14T11:50:38;14.68;;;9.77;;
13244;SDS011;6689;53.400;12.486;2024-02-14T11:53:06;12.52;;;9.15;;
13244;SDS011;6689;53.400;12.486;2024-02-14T11:55:36;10.73;;;8.57;;
13244;SDS011;6689;53.400;12.486;2024-02-14T11:58:08;12.52;;;9.65;;
13244;SDS011;6689;53.400;12.486;2024-02-14T12:00:37;14.13;;;9.90;;
13244;SDS011;6689;53.400;12.486;2024-02-14T12:03:06;14.98;;;9.55;;
13244;SDS011;6689;53.400;12.486;2024-02-14T12:05:34;13.90;;;9.57;;
13244;SDS011;6689;53.400;12.486;2024-02-14T12:08:03;11.85;;;8.65;;
13244;SDS011;6689;53.400;12.486;2024-02-14T12:10:32;13.43;;;9.90;;
13244;SDS011;6689;53.400;12.486;2024-02-14T12:13:06;12.57;;;9.32;;
13244;SDS011;6689;53.400;12.486;2024-02-14T12:15:38;12.23;;;9.38;;
13244;SDS011;6689;53.400;12.486;2024-02-14T12:18:06;16.70;;;10.80;;
13244;SDS011;6689;53.400;12.486;2024-02-14T12:20:36;15.43;;;10.85;;
13244;SDS011;6689;53.400;12.486;2024-02-14T12:23:03;16.65;;;11.07;;
13244;SDS011;6689;53.400;12.486;2024-02-14T12:25:31;14.48;;;11.00;;
13244;SDS011;6689;53.400;12.486;2024-02-14T12:27:59;16.70;;;9.88;;
13244;SDS011;6689;53.400;12.486;2024-02-14T12:30:35;13.10;;;9.82;;
13244;SDS011;6689;53.400;12.486;2024-02-14T12:33:10;13.02;;;9.52;;
13244;SDS011;6689;53.400;12.486;2024-02-14T12:35:40;12.85;;;9.63;;
13244;SDS011;6689;53.400;12.486;2024-02-14T12:38:09;12.98;;;9.13;;
13244;SDS011;6689;53.400;12.486;2024-02-14T12:40:36;14.32;;;10.55;;
13244;SDS011;6689;53.400;12.486;2024-02-14T12:43:06;14.80;;;10.35;;
13244;SDS011;6689;53.400;12.486;2024-02-14T12:45:35;17.13;;;9.20;;
13244;SDS011;6689;53.400;12.486;2024-02-14T12:48:03;17.15;;;9.63;;
13244;SDS011;6689;53.400;12.486;2024-02-14T12:50:31;12.27;;;9.88;;
13244;SDS011;6689;53.400;12.486;2024-02-14T12:52:59;11.65;;;8.40;;
13244;SDS011;6689;53.400;12.486;2024-02-14T12:55:27;14.65;;;8.80;;
13244;SDS011;6689;53.400;12.486;2024-02-14T12:57:55;13.98;;;8.98;;
13244;SDS011;6689;53.400;12.486;2024-02-14T13:00:26;14.68;;;8.55;;
13244;SDS011;6689;53.400;12.486;2024-02-14T13:02:56;11.82;;;8.23;;
13244;SDS011;6689;53.400;12.486;2024-02-14T13:05:25;12.18;;;8.73;;
13244;SDS011;6689;53.400;12.486;2024-02-14T13:07:56;11.95;;;8.52;;
13244;SDS011;6689;53.400;12.486;2024-02-14T13:10:25;11.30;;;8.23;;
13244;SDS011;6689;53.400;12.486;2024-02-14T13:12:52;13.20;;;9.07;;
13244;SDS011;6689;53.400;12.486;2024-02-14T13:15:19;16.17;;;10.52;;
13244;SDS011;6689;53.400;12.486;2024-02-14T13:17:46;10.25;;;7.80;;
13244;SDS011;6689;53.400;12.486;2024-02-14T13:20:19;16.45;;;9.15;;
13244;SDS011;6689;53.400;12.486;2024-02-14T13:22:47;13.82;;;8.40;;
13244;SDS011;6689;53.400;12.486;2024-02-14T13:25:15;11.98;;;8.38;;
13244;SDS011;6689;53.400;12.486;2024-02-14T13:27:42;14.50;;;9.63;;
13244;SDS011;6689;53.400;12.486;2024-02-14T13:30:11;13.23;;;9.18;;
13244;SDS011;6689;53.400;12.486;2024-02-14T13:32:38;14.48;;;9.13;;
13244;SDS011;6689;53.400;12.486;2024-02-14T13:35:06;13.10;;;10.05;;
13244;SDS011;6689;53.400;12.486;2024-02-14T13:37:37;11.45;;;9.15;;
13244;SDS011;6689;53.400;12.486;2024-02-14T13:40:04;14.95;;;9.00;;
13244;SDS011;6689;53.400;12.486;2024-02-14T13:42:35;15.30;;;9.77;;
13244;SDS011;6689;53.400;12.486;2024-02-14T13:45:04;15.45;;;9.80;;
13244;SDS011;6689;53.400;12.486;2024-02-14T13:47:35;13.70;;;9.95;;
13244;SDS011;6689;53.400;12.486;2024-02-14T13:50:04;12.55;;;9.07;;
13244;SDS011;6689;53.400;12.486;2024-02-14T13:52:31;13.57;;;8.93;;
13244;SDS011;6689;53.400;12.486;2024-02-14T13:55:01;13.35;;;8.90;;
13244;SDS011;6689;53.400;12.486;2024-02-14T13:57:30;12.70;;;8.43;;
13244;SDS011;6689;53.400;12.486;2024-02-14T13:59:57;11.80;;;7.88;;
13244;SDS011;6689;53.400;12.486;2024-02-14T14:02:24;14.15;;;9.30;;
13244;SDS011;6689;53.400;12.486;2024-02-14T14:04:51;14.77;;;8.70;;
13244;SDS011;6689;53.400;12.486;2024-02-14T14:07:20;13.70;;;9.45;;
13244;SDS011;6689;53.400;12.486;2024-02-14T14:09:49;11.35;;;7.63;;
13244;SDS011;6689;53.400;12.486;2024-02-14T14:12:17;9.68;;;7.53;;
13244;SDS011;6689;53.400;12.486;2024-02-14T14:14:44;11.98;;;8.07;;
13244;SDS011;6689;53.400;12.486;2024-02-14T14:17:12;12.15;;;7.95;;
13244;SDS011;6689;53.400;12.486;2024-02-14T14:19:41;12.40;;;7.10;;
13244;SDS011;6689;53.400;12.486;2024-02-14T14:22:08;9.02;;;7.15;;
13244;SDS011;6689;53.400;12.486;2024-02-14T14:24:36;9.20;;;6.85;;
13244;SDS011;6689;53.400;12.486;2024-02-14T14:27:03;11.80;;;7.50;;
13244;SDS011;6689;53.400;12.486;2024-02-14T14:29:35;12.52;;;7.22;;
13244;SDS011;6689;53.400;12.486;2024-02-14T14:32:02;8.45;;;6.85;;
13244;SDS011;6689;53.400;12.486;2024-02-14T14:34:31;8.75;;;6.53;;
13244;SDS011;6689;53.400;12.486;2024-02-14T14:37:00;10.02;;;7.15;;
13244;SDS011;6689;53.400;12.486;2024-02-14T14:39:27;9.35;;;7.40;;
13244;SDS011;6689;53.400;12.486;2024-02-14T14:41:57;12.55;;;7.57;;
13244;SDS011;6689;53.400;12.486;2024-02-14T14:44:24;10.57;;;7.22;;
13244;SDS011;6689;53.400;12.486;2024-02-14T14:46:53;9.52;;;7.50;;
13244;SDS011;6689;53.400;12.486;2024-02-14T14:49:20;11.25;;;7.55;;
13244;SDS011;6689;53.400;12.486;2024-02-14T14:51:48;11.35;;;7.93;;
13244;SDS011;6689;53.400;12.486;2024-02-14T14:54:15;11.68;;;7.38;;
13244;SDS011;6689;53.400;12.486;2024-02-14T14:56:45;10.27;;;7.32;;
13244;SDS011;6689;53.400;12.486;2024-02-14T14:59:13;12.05;;;7.68;;
13244;SDS011;6689;53.400;12.486;2024-02-14T15:01:44;9.50;;;7.07;;
13244;SDS011;6689;53.400;12.486;2024-02-14T15:04:12;10.48;;;7.50;;